Share

White Mountain, AK (99784)

1:04 AM AKDT on April 24, 2014 (GMT -0800)
White Mountain (PAWM) Elev 266 ft | 64.69 °N, 163.41 °W | Change Station

Current weather conditions updated 6 minutes ago

Clear
Clear
39 °F
Feels Like 32 °F
N
10
Wind Variable Wind from NNE
Gusts 18 mph
Sunrise 6:44 AM
Sunset 11:00 PM
Moon Waning Crescent

Today is forecast to be Cooler than yesterday.

Pressure 29.70 in
Visibility 10.0 miles
Clouds Clear
Windchill 32 °F
Dew Point 27 °F
Humidity 62%
Rainfall 0.00 in
Snow Depth Not available.
UV 0 out of 16
Pollen Not available.
Air Quality Not available.
Flu Activity Sporadic
METAR PAWM 240858Z AUTO 02009G16KT 10SM CLR 04/M03 A2966 RMK AO2 SLP055 T00391028 401110017 57003

More Conditions Fewer Conditions

Pressure 29.70 in
Visibility 10.0 miles
Clouds Clear
Windchill 32 °F
Dew Point 27 °F
Humidity 62%
Rainfall 0.00 in
Snow Depth Not available.
UV 0 out of 16
Pollen Not available.
Air Quality Not available.
Flu Activity Sporadic
METAR PAWM 240858Z AUTO 02009G16KT 10SM CLR 04/M03 A2966 RMK AO2 SLP055 T00391028 401110017 57003

More Conditions Fewer Conditions

10-Day Weather Forecast

Almanac

Astronomy

Apr. 24, 2014 Rise Set
Actual Time 6:44 AM AKDT 11:00 PM AKDT
Civil Twilight 5:39 AM AKDT 12:06 AM AKDT
Nautical Twilight 3:21 AM AKDT 2:18 AM AKDT
Astronomical Twilight Sun does not rise Sun does not rise
Moon 5:53 AM AKDT 4:48 PM AKDT
Length of Visible Light 18h 27m
Length of Day
16h 16m
Tomorrow will be 6m 59s longer.
Waning Crescent, 27% of the Moon is Illuminated
Today
Waning Crescent
Apr 29
New
May 6
First Quarter
May 14
Full
May 21
Last Quarter

Today's Extremes

State Highs State Lows

Community

  • Stacked
    Stacked
  • clouds approaching Red Sox Nation
    clouds approaching Red Sox Nation
  • Balance
    Balance
  • Nestled In
    Nestled In
  • Stunning Sunrise
    Stunning Sunrise

WunderPhotos

Upload Photos

1,704,575 photos uploaded!

WunderBlogs® & News

Nearby

Snow Depth

Station Depth Elevation
Pargon Creek 0 in 300 ft
Rocky Point 1 in 500 ft
Gobblers Knob 6 in 2030 ft
Coldfoot 21 in 1040 ft
Atigun Pass 37 in 4800 ft

Coastal Water Temperatures

Place Temperature
No Stations Reporting

Earthquake Activity

City Distance Mag. Time & Date
No recent earthquake activity has been reported nearby.
Minimum magnitude displayed is 2.5.

Nearby Weather Stations

Station Location Temp. Windchill Dew Point Humidity Wind Precip. Elev Updated Type
MesoWest PARGON CREEK , White Mountain, AK 35 °F 35 °F - - North  at  - 0.00 in / hr 299 ft 12:00 AM AKDT MADIS
HADS NIUKLUK RIVER ABOVE MELSING CREE AK, White Mountain, AK 39 °F 39 °F - - North  at  - 0.00 in / hr 96 ft 11:45 PM AKDT MADIS
MesoWest ROCKY POINT , Golovin, AK 36 °F 36 °F 28 °F 71% North  at  - 0.00 in / hr 500 ft 12:00 AM AKDT MADIS

Show More Stations Show Fewer Stations

What do you think?

We're not finished. Please let us know what you like, what you don't like, and what you are still missing.